Nearby METAR Reports

KLWM - Lawrence,MA, USA
Distance from station: NE 12mi, 19km
Updated: Sun, 23-Sep-2018 7:54am EDT
Clear
Clear
 Wind from calm
Wind: Calm
Temperature: 52°F , 11°C
Dew Point: 45°F , 7°C
Humidity: 77%
Barometer: 30.28 inHg , 1025.4 hPa
Clouds: Clear
Visibility: 10 miles , 16 km
2018/09/23 11:54 KLWM 231154Z 00000KT 10SM CLR 11/07 A3028 RMK AO2 SLP254 T01060067 10106 20089 51007
KBED - Bedford,MA, USA
Distance from station: SSE 12mi, 19km
Updated: Sun, 23-Sep-2018 7:56am EDT
Mostly Cloudy
Mostly Cloudy
 Wind from calm
Wind: Calm
Temperature: 46°F , 8°C
Dew Point: 45°F , 7°C
Humidity: 93%
Barometer: 30.25 inHg , 1024.4 hPa
Clouds: Mostly Cloudy
Visibility: 10 miles , 16 km
Cloud details: Mostly Cloudy 25000 ft
2018/09/23 11:56 KBED 231156Z 00000KT 10SM BKN250 08/07 A3025 RMK AO2 SLP258 T00830067 10083 20061 51005

Metar display script from Saratoga-Weather.org